createdAt,value
2017-09-04T00:01:29.327Z,14.00
2017-09-04T00:03:56.274Z,14.10
2017-09-04T00:06:23.173Z,14.00
2017-09-04T00:08:50.170Z,13.90
2017-09-04T00:11:17.165Z,13.80
2017-09-04T00:13:44.049Z,13.70
2017-09-04T00:16:11.006Z,13.80
2017-09-04T00:18:37.931Z,13.80
2017-09-04T00:21:04.943Z,13.80
2017-09-04T00:23:31.844Z,13.90
2017-09-04T00:25:58.793Z,13.90
2017-09-04T00:28:25.679Z,13.90
2017-09-04T00:30:52.557Z,13.80
2017-09-04T00:33:19.481Z,13.70
2017-09-04T00:35:46.369Z,13.70
2017-09-04T00:38:13.265Z,13.60
2017-09-04T00:40:40.188Z,13.60
2017-09-04T00:43:07.061Z,13.50
2017-09-04T00:45:33.951Z,13.40
2017-09-04T00:48:00.906Z,13.50
2017-09-04T00:50:27.789Z,13.40
2017-09-04T00:52:54.678Z,13.40
2017-09-04T00:55:21.593Z,13.50
2017-09-04T00:57:48.481Z,13.40
2017-09-04T01:00:15.430Z,13.40
2017-09-04T01:02:42.354Z,13.40
2017-09-04T01:05:09.318Z,13.50
2017-09-04T01:07:36.199Z,13.50
2017-09-04T01:10:03.205Z,13.50
2017-09-04T01:12:30.081Z,13.50
2017-09-04T01:14:57.007Z,13.50
2017-09-04T01:17:23.921Z,13.60
2017-09-04T01:19:50.812Z,13.60
2017-09-04T01:22:17.695Z,13.60
2017-09-04T01:24:44.692Z,13.80
2017-09-04T01:27:11.613Z,13.70
2017-09-04T01:29:38.586Z,13.60
2017-09-04T01:32:05.522Z,13.50
2017-09-04T01:34:32.479Z,13.40
2017-09-04T01:36:59.413Z,13.40
2017-09-04T01:39:26.364Z,13.30
2017-09-04T01:41:53.257Z,13.20
2017-09-04T01:44:20.153Z,13.20
2017-09-04T01:46:47.093Z,13.20
2017-09-04T01:49:13.978Z,13.20
2017-09-04T01:51:40.889Z,13.20
2017-09-04T01:54:07.818Z,13.20
2017-09-04T01:56:34.787Z,13.10
2017-09-04T01:59:01.725Z,13.00
2017-09-04T02:01:28.674Z,13.10
2017-09-04T02:03:55.625Z,13.10
2017-09-04T02:06:22.511Z,13.10
2017-09-04T02:08:49.429Z,13.20
2017-09-04T02:11:16.322Z,13.30
2017-09-04T02:13:43.306Z,13.30
2017-09-04T02:16:10.229Z,13.30
2017-09-04T02:18:37.197Z,13.20
2017-09-04T02:21:04.140Z,13.30
2017-09-04T02:23:31.096Z,13.30
2017-09-04T02:25:57.969Z,13.30
2017-09-04T02:28:24.896Z,13.30
2017-09-04T02:30:51.830Z,13.10
2017-09-04T02:33:18.722Z,13.10
2017-09-04T02:35:45.615Z,13.10
2017-09-04T02:38:12.672Z,13.10
2017-09-04T02:40:39.623Z,13.10
2017-09-04T02:43:06.557Z,13.10
2017-09-04T02:45:33.585Z,13.10
2017-09-04T02:48:00.475Z,13.10
2017-09-04T02:50:27.408Z,13.10
2017-09-04T02:52:54.330Z,13.20
2017-09-04T02:55:21.246Z,13.10
2017-09-04T02:57:48.137Z,12.80
2017-09-04T03:00:15.082Z,12.70
2017-09-04T03:02:42.029Z,12.60
2017-09-04T03:05:08.917Z,12.70
2017-09-04T03:07:35.932Z,12.50
2017-09-04T03:10:02.819Z,12.40
2017-09-04T03:12:29.712Z,12.30
2017-09-04T03:14:56.629Z,12.40
2017-09-04T03:17:23.518Z,12.30
2017-09-04T03:19:50.423Z,12.40
2017-09-04T03:22:17.350Z,12.50
2017-09-04T03:24:44.233Z,12.60
2017-09-04T03:27:11.126Z,12.50
2017-09-04T03:29:38.068Z,12.40
2017-09-04T03:32:04.973Z,12.40
2017-09-04T03:34:31.862Z,12.40
2017-09-04T03:36:58.802Z,12.40
2017-09-04T03:39:25.698Z,12.40
2017-09-04T03:41:52.592Z,12.50
2017-09-04T03:44:19.505Z,12.50
2017-09-04T03:46:46.396Z,12.50
2017-09-04T03:49:13.277Z,12.60
2017-09-04T03:51:40.201Z,12.60
2017-09-04T03:54:07.102Z,12.50
2017-09-04T03:56:33.989Z,12.40
2017-09-04T03:59:00.924Z,12.30
2017-09-04T04:01:27.810Z,12.40
2017-09-04T04:03:54.694Z,12.40
2017-09-04T04:06:21.626Z,12.40
2017-09-04T04:08:48.509Z,12.30
2017-09-04T04:11:15.404Z,12.30
2017-09-04T04:13:42.326Z,12.20
2017-09-04T04:16:09.205Z,12.10
2017-09-04T04:18:36.088Z,12.10
2017-09-04T04:21:03.012Z,12.10
2017-09-04T04:23:29.914Z,12.10
2017-09-04T04:25:56.805Z,12.30
2017-09-04T04:28:23.729Z,12.20
2017-09-04T04:30:50.625Z,12.20
2017-09-04T04:33:17.611Z,12.10
2017-09-04T04:35:44.553Z,12.10
2017-09-04T04:38:11.498Z,12.20
2017-09-04T04:40:38.433Z,12.10
2017-09-04T04:43:05.389Z,11.90
2017-09-04T04:45:32.356Z,11.90
2017-09-04T04:47:59.235Z,11.80
2017-09-04T04:50:26.225Z,11.80
2017-09-04T04:52:53.122Z,11.80
2017-09-04T04:55:20.049Z,11.80
2017-09-04T04:57:47.065Z,11.90
2017-09-04T05:00:13.961Z,11.90
2017-09-04T05:02:40.837Z,12.10
2017-09-04T05:05:07.810Z,11.90
2017-09-04T05:07:34.698Z,11.90
2017-09-04T05:10:01.594Z,12.00
2017-09-04T05:12:28.533Z,12.10
2017-09-04T05:14:55.422Z,12.20
2017-09-04T05:17:22.330Z,12.30
2017-09-04T05:19:49.269Z,12.40
2017-09-04T05:22:16.158Z,12.20
2017-09-04T05:24:43.075Z,12.30
2017-09-04T05:27:10.069Z,12.30
2017-09-04T05:29:36.947Z,12.30
2017-09-04T05:32:03.901Z,12.30
2017-09-04T05:34:30.828Z,12.50
2017-09-04T05:36:58.066Z,12.70
2017-09-04T05:39:25.051Z,12.80
2017-09-04T05:41:51.965Z,12.80
2017-09-04T05:44:18.944Z,13.00
2017-09-04T05:46:45.894Z,13.00
2017-09-04T05:49:12.837Z,13.10
2017-09-04T05:51:39.781Z,13.20
2017-09-04T05:54:06.755Z,13.30
2017-09-04T05:56:33.686Z,13.30
2017-09-04T05:59:00.621Z,13.10
2017-09-04T06:01:27.577Z,13.20
2017-09-04T06:03:54.550Z,13.20
2017-09-04T06:06:21.430Z,13.40
2017-09-04T06:08:48.410Z,13.50
2017-09-04T06:11:15.358Z,13.70
2017-09-04T06:13:42.301Z,13.80
2017-09-04T06:16:09.250Z,13.90
2017-09-04T06:18:36.194Z,14.10
2017-09-04T06:21:03.137Z,14.20
2017-09-04T06:23:30.081Z,14.20
2017-09-04T06:25:57.049Z,14.30
2017-09-04T06:28:23.937Z,14.40
2017-09-04T06:30:50.815Z,14.50
2017-09-04T06:33:17.778Z,14.60
2017-09-04T06:35:44.725Z,14.70
2017-09-04T06:38:11.626Z,14.70
2017-09-04T06:40:38.601Z,14.90
2017-09-04T06:43:05.562Z,15.00
2017-09-04T06:45:32.497Z,15.10
2017-09-04T06:47:59.454Z,15.20
2017-09-04T06:50:26.409Z,15.30
2017-09-04T06:52:53.317Z,15.40
2017-09-04T06:55:20.251Z,15.50
2017-09-04T06:57:47.228Z,15.60
2017-09-04T07:00:14.182Z,15.60
2017-09-04T07:02:41.168Z,15.70
2017-09-04T07:05:08.097Z,15.80
2017-09-04T07:07:35.013Z,15.90
2017-09-04T07:10:02.008Z,16.10
2017-09-04T07:12:28.898Z,16.30
2017-09-04T07:14:55.857Z,16.40
2017-09-04T07:17:22.909Z,16.50
2017-09-04T07:19:49.856Z,16.60
2017-09-04T07:22:16.801Z,16.70
2017-09-04T07:24:43.741Z,16.70
2017-09-04T07:27:10.701Z,16.80
2017-09-04T07:29:37.587Z,16.80
2017-09-04T07:32:04.582Z,17.00
2017-09-04T07:34:31.538Z,17.10
2017-09-04T07:36:58.486Z,17.10
2017-09-04T07:39:25.412Z,17.10
2017-09-04T07:41:52.369Z,17.00
2017-09-04T07:44:19.276Z,17.10
2017-09-04T07:46:46.257Z,17.10
2017-09-04T07:49:13.205Z,17.00
2017-09-04T07:51:40.149Z,17.00
2017-09-04T07:54:07.068Z,17.00
2017-09-04T07:56:33.966Z,17.10
2017-09-04T07:59:00.901Z,17.20
2017-09-04T08:01:28.146Z,17.20
2017-09-04T08:03:55.037Z,17.30
2017-09-04T08:06:21.958Z,17.40
2017-09-04T08:08:48.962Z,17.50
2017-09-04T08:11:15.861Z,17.60
2017-09-04T08:13:42.818Z,17.80
2017-09-04T08:16:09.737Z,17.80
2017-09-04T08:18:36.670Z,17.90
2017-09-04T08:21:03.625Z,18.00
2017-09-04T08:23:30.557Z,18.00
2017-09-04T08:25:57.509Z,18.10
2017-09-04T08:28:24.461Z,18.20
2017-09-04T08:30:51.402Z,18.30
2017-09-04T08:33:18.292Z,18.50
2017-09-04T08:35:45.180Z,18.60
2017-09-04T08:38:12.109Z,18.80
2017-09-04T08:40:39.040Z,18.80
2017-09-04T08:43:05.925Z,18.60
2017-09-04T08:45:32.925Z,18.50
2017-09-04T08:47:59.829Z,18.60
2017-09-04T08:50:26.740Z,18.70
2017-09-04T08:52:53.710Z,18.70
2017-09-04T08:55:20.602Z,18.80
2017-09-04T08:57:47.509Z,19.00
2017-09-04T09:00:14.433Z,19.10
2017-09-04T09:02:41.321Z,19.20
2017-09-04T09:05:08.270Z,19.20
2017-09-04T09:07:35.332Z,19.30
2017-09-04T09:10:02.223Z,19.30
2017-09-04T09:12:29.199Z,19.30
2017-09-04T09:14:56.226Z,19.40
2017-09-04T09:17:23.185Z,19.50
2017-09-04T09:19:50.167Z,19.70
2017-09-04T09:22:17.181Z,19.80
2017-09-04T09:24:44.130Z,19.80
2017-09-04T09:27:11.071Z,19.90
2017-09-04T09:29:38.006Z,19.90
2017-09-04T09:32:05.002Z,20.00
2017-09-04T09:34:31.899Z,20.00
2017-09-04T09:36:59.065Z,20.10
2017-09-04T09:39:26.012Z,20.20
2017-09-04T09:41:52.910Z,20.20
2017-09-04T09:44:19.905Z,20.20
2017-09-04T09:46:46.833Z,20.30
2017-09-04T09:49:13.834Z,20.30
2017-09-04T09:51:40.750Z,20.40
2017-09-04T09:54:07.725Z,20.50
2017-09-04T09:56:34.633Z,20.60
2017-09-04T09:59:01.585Z,20.60
2017-09-04T10:01:28.494Z,20.60
2017-09-04T10:03:55.466Z,20.70
2017-09-04T10:06:22.413Z,20.70
2017-09-04T10:08:49.330Z,20.80
2017-09-04T10:11:16.222Z,20.80
2017-09-04T10:13:43.354Z,20.90
2017-09-04T10:16:10.274Z,20.90
2017-09-04T10:18:37.162Z,20.90
2017-09-04T10:21:04.105Z,21.00
2017-09-04T10:23:31.048Z,21.00
2017-09-04T10:25:57.937Z,21.00
2017-09-04T10:28:24.925Z,21.00
2017-09-04T10:30:51.920Z,21.10
2017-09-04T10:33:18.862Z,21.20
2017-09-04T10:35:45.874Z,21.30
2017-09-04T10:38:12.821Z,21.40
2017-09-04T10:40:39.710Z,21.40
2017-09-04T10:43:06.637Z,21.40
2017-09-04T10:45:33.549Z,21.40
2017-09-04T10:48:00.545Z,21.40
2017-09-04T10:50:27.541Z,21.40
2017-09-04T10:52:54.430Z,21.50
2017-09-04T10:55:21.337Z,21.60
2017-09-04T10:57:48.280Z,21.60
2017-09-04T11:00:15.170Z,21.60
2017-09-04T11:02:42.063Z,21.70
2017-09-04T11:05:09.001Z,21.70
2017-09-04T11:07:35.885Z,21.90
2017-09-04T11:10:02.765Z,22.00
2017-09-04T11:12:29.754Z,22.00
2017-09-04T11:14:56.721Z,22.10
2017-09-04T11:17:23.605Z,22.20
2017-09-04T11:19:50.550Z,22.20
2017-09-04T11:22:17.441Z,22.20
2017-09-04T11:24:44.385Z,22.30
2017-09-04T11:27:11.333Z,22.30
2017-09-04T11:29:38.285Z,22.30
2017-09-04T11:32:05.238Z,22.30
2017-09-04T11:34:32.177Z,22.40
2017-09-04T11:36:59.117Z,22.30
2017-09-04T11:39:25.997Z,22.40
2017-09-04T11:41:53.019Z,22.40
2017-09-04T11:44:19.957Z,22.40
2017-09-04T11:46:47.725Z,22.30
2017-09-04T11:49:14.654Z,22.50
2017-09-04T11:51:41.631Z,22.40
2017-09-04T11:54:08.569Z,22.50
2017-09-04T11:56:35.597Z,22.60
2017-09-04T11:59:02.568Z,22.60
2017-09-04T12:01:29.609Z,22.70
2017-09-04T12:03:56.549Z,22.70
2017-09-04T12:06:23.434Z,22.70
2017-09-04T12:08:50.392Z,22.70
2017-09-04T12:11:17.325Z,22.70
2017-09-04T12:13:44.268Z,22.80
2017-09-04T12:16:11.182Z,22.90
2017-09-04T12:18:38.130Z,22.90
2017-09-04T12:21:05.012Z,22.90
2017-09-04T12:23:31.893Z,22.90
2017-09-04T12:25:58.818Z,23.00
2017-09-04T12:28:25.717Z,23.00
2017-09-04T12:30:52.672Z,22.90
2017-09-04T12:33:19.594Z,22.80
2017-09-04T12:35:46.476Z,22.80
2017-09-04T12:38:13.393Z,22.70
2017-09-04T12:40:40.440Z,22.60
2017-09-04T12:43:07.386Z,22.60
2017-09-04T12:45:34.333Z,22.60
2017-09-04T12:48:01.249Z,22.60
2017-09-04T12:50:28.229Z,22.70
2017-09-04T12:52:55.173Z,22.80
2017-09-04T12:55:22.115Z,22.90
2017-09-04T12:57:49.065Z,23.00
2017-09-04T13:00:16.013Z,23.10
2017-09-04T13:02:43.057Z,23.30
2017-09-04T13:05:10.009Z,23.40
2017-09-04T13:07:36.898Z,23.40
2017-09-04T13:10:03.893Z,23.60
2017-09-04T13:12:31.128Z,23.50
2017-09-04T13:14:58.098Z,23.00
2017-09-04T13:17:25.053Z,22.90
2017-09-04T13:19:51.938Z,22.40
2017-09-04T13:22:18.884Z,22.60
2017-09-04T13:24:45.804Z,22.50
2017-09-04T13:27:12.730Z,22.10
2017-09-04T13:29:39.685Z,21.90
2017-09-04T13:32:06.621Z,21.90
2017-09-04T13:34:33.497Z,22.20
2017-09-04T13:37:00.558Z,22.60
2017-09-04T13:39:27.516Z,22.80
2017-09-04T13:41:54.413Z,22.90
2017-09-04T13:44:21.362Z,23.00
2017-09-04T13:46:48.308Z,23.10
2017-09-04T13:49:15.185Z,22.80
2017-09-04T13:51:42.091Z,22.50
2017-09-04T13:54:09.041Z,22.60
2017-09-04T13:56:35.926Z,22.70
2017-09-04T13:59:02.813Z,22.90
2017-09-04T14:01:29.780Z,22.70
2017-09-04T14:03:56.846Z,22.50
2017-09-04T14:06:23.729Z,22.70
2017-09-04T14:08:50.737Z,22.70
2017-09-04T14:11:17.666Z,22.20
2017-09-04T14:13:44.657Z,21.80
2017-09-04T14:16:11.659Z,21.90
2017-09-04T14:18:38.577Z,22.20
2017-09-04T14:21:05.545Z,22.60
2017-09-04T14:23:32.469Z,22.40
2017-09-04T14:25:59.441Z,22.00
2017-09-04T14:28:26.403Z,21.80
2017-09-04T14:30:53.333Z,21.50
2017-09-04T14:33:20.214Z,21.70
2017-09-04T14:35:47.130Z,22.10
2017-09-04T14:38:14.074Z,22.20
2017-09-04T14:40:40.989Z,22.10
2017-09-04T14:43:07.911Z,22.20
2017-09-04T14:45:34.909Z,22.50
2017-09-04T14:48:01.861Z,22.50
2017-09-04T14:50:28.853Z,22.70
2017-09-04T14:52:56.205Z,22.90
2017-09-04T14:55:23.105Z,22.90
2017-09-04T14:57:49.989Z,22.80
2017-09-04T15:00:16.914Z,22.60
2017-09-04T15:02:43.802Z,22.40
2017-09-04T15:05:10.736Z,21.70
2017-09-04T15:07:37.785Z,21.30
2017-09-04T15:10:04.690Z,21.30
2017-09-04T15:12:31.587Z,21.20
2017-09-04T15:14:58.573Z,21.20
2017-09-04T15:17:25.521Z,21.20
2017-09-04T15:19:52.405Z,21.00
2017-09-04T15:22:19.414Z,20.80
2017-09-04T15:24:46.364Z,20.70
2017-09-04T15:27:13.310Z,20.70
2017-09-04T15:29:40.252Z,20.60
2017-09-04T15:32:07.247Z,20.70
2017-09-04T15:34:34.145Z,20.90
2017-09-04T15:37:01.069Z,21.00
2017-09-04T15:39:28.041Z,21.00
2017-09-04T15:41:54.989Z,21.10
2017-09-04T15:44:21.941Z,21.00
2017-09-04T15:46:48.891Z,21.10
2017-09-04T15:49:15.975Z,21.40
2017-09-04T15:51:42.978Z,21.50
2017-09-04T15:54:09.861Z,21.70
2017-09-04T15:56:36.815Z,21.90
2017-09-04T15:59:03.738Z,21.80
2017-09-04T16:01:30.666Z,21.80
2017-09-04T16:03:57.609Z,22.00
2017-09-04T16:06:24.561Z,22.20
2017-09-04T16:08:51.457Z,22.30
2017-09-04T16:11:18.890Z,22.40
2017-09-04T16:13:45.941Z,22.50
2017-09-04T16:16:12.866Z,22.50
2017-09-04T16:18:39.844Z,22.40
2017-09-04T16:21:06.791Z,22.60
2017-09-04T16:23:33.705Z,22.60
2017-09-04T16:26:00.590Z,22.50
2017-09-04T16:28:27.513Z,22.30
2017-09-04T16:30:54.426Z,22.10
2017-09-04T16:33:21.301Z,21.70
2017-09-04T16:35:48.329Z,21.40
2017-09-04T16:38:15.269Z,21.30
2017-09-04T16:40:42.214Z,21.40
2017-09-04T16:43:09.262Z,21.50
2017-09-04T16:45:36.214Z,21.40
2017-09-04T16:48:03.087Z,21.30
2017-09-04T16:50:30.016Z,21.30
2017-09-04T16:52:56.992Z,21.10
2017-09-04T16:55:23.890Z,21.20
2017-09-04T16:57:50.838Z,21.20
2017-09-04T17:00:17.717Z,21.00
2017-09-04T17:02:44.597Z,20.90
2017-09-04T17:05:11.578Z,20.90
2017-09-04T17:07:38.530Z,20.90
2017-09-04T17:10:05.486Z,20.90
2017-09-04T17:12:32.518Z,20.90
2017-09-04T17:14:59.423Z,20.70
2017-09-04T17:17:26.409Z,20.80
2017-09-04T17:19:53.608Z,20.80
2017-09-04T17:22:20.526Z,20.90
2017-09-04T17:24:47.449Z,21.00
2017-09-04T17:27:14.393Z,20.80
2017-09-04T17:29:41.346Z,20.70
2017-09-04T17:32:08.289Z,20.50
2017-09-04T17:34:35.265Z,20.60
2017-09-04T17:37:02.150Z,20.70
2017-09-04T17:39:29.129Z,20.80
2017-09-04T17:41:56.144Z,20.80
2017-09-04T17:44:23.122Z,20.60
2017-09-04T17:46:50.018Z,20.40
2017-09-04T17:49:16.954Z,20.10
2017-09-04T17:51:43.912Z,20.10
2017-09-04T17:54:10.809Z,20.00
2017-09-04T17:56:37.783Z,19.90
2017-09-04T17:59:04.811Z,19.90
2017-09-04T18:01:31.721Z,19.80
2017-09-04T18:03:58.621Z,19.90
2017-09-04T18:06:25.589Z,19.90
2017-09-04T18:08:52.465Z,20.10
2017-09-04T18:11:19.422Z,20.30
2017-09-04T18:13:46.395Z,20.20
2017-09-04T18:16:13.278Z,20.20
2017-09-04T18:18:40.298Z,20.30
2017-09-04T18:21:07.201Z,20.30
2017-09-04T18:23:34.080Z,20.30
2017-09-04T18:26:01.001Z,20.40
2017-09-04T18:28:28.003Z,20.40
2017-09-04T18:30:54.901Z,20.50
2017-09-04T18:33:21.850Z,20.50
2017-09-04T18:35:48.750Z,20.50
2017-09-04T18:38:15.741Z,20.50
2017-09-04T18:40:42.686Z,20.60
2017-09-04T18:43:09.566Z,20.60
2017-09-04T18:45:36.474Z,20.50
2017-09-04T18:48:03.430Z,20.50
2017-09-04T18:50:30.349Z,20.30
2017-09-04T18:52:57.322Z,20.30
2017-09-04T18:55:24.264Z,20.30
2017-09-04T18:57:51.138Z,20.20
2017-09-04T19:00:18.162Z,19.90
2017-09-04T19:02:45.122Z,19.70
2017-09-04T19:05:12.049Z,19.60
2017-09-04T19:07:39.182Z,19.50
2017-09-04T19:10:06.117Z,19.50
2017-09-04T19:12:33.006Z,19.60
2017-09-04T19:14:59.941Z,19.70
2017-09-04T19:17:26.885Z,19.70
2017-09-04T19:19:53.774Z,19.60
2017-09-04T19:22:20.680Z,19.70
2017-09-04T19:24:47.622Z,19.80
2017-09-04T19:27:14.497Z,19.90
2017-09-04T19:29:41.413Z,20.00
2017-09-04T19:32:08.350Z,20.00
2017-09-04T19:34:35.233Z,20.10
2017-09-04T19:37:02.114Z,20.10
2017-09-04T19:39:29.088Z,20.00
2017-09-04T19:41:56.005Z,19.80
2017-09-04T19:44:22.983Z,19.70
2017-09-04T19:46:49.968Z,19.60
2017-09-04T19:49:16.925Z,19.50
2017-09-04T19:51:43.830Z,19.60
2017-09-04T19:54:10.778Z,19.60
2017-09-04T19:56:37.715Z,19.50
2017-09-04T19:59:04.665Z,19.30
2017-09-04T20:01:31.614Z,19.30
2017-09-04T20:03:58.557Z,19.30
2017-09-04T20:06:25.654Z,19.20
2017-09-04T20:08:52.546Z,19.10
2017-09-04T20:11:19.469Z,19.00
2017-09-04T20:13:46.440Z,19.10
2017-09-04T20:16:13.390Z,19.00
2017-09-04T20:18:40.345Z,19.10
2017-09-04T20:21:07.360Z,19.20
2017-09-04T20:23:34.254Z,19.20
2017-09-04T20:26:01.197Z,19.30
2017-09-04T20:28:28.203Z,19.30
2017-09-04T20:30:55.081Z,19.20
2017-09-04T20:33:22.098Z,19.30
2017-09-04T20:35:48.990Z,19.30
2017-09-04T20:38:15.914Z,19.40
2017-09-04T20:40:42.834Z,19.40
2017-09-04T20:43:09.713Z,19.40
2017-09-04T20:45:36.640Z,19.50
2017-09-04T20:48:03.598Z,19.40
2017-09-04T20:50:30.579Z,19.40
2017-09-04T20:52:57.562Z,19.30
2017-09-04T20:55:24.505Z,19.20
2017-09-04T20:57:51.470Z,19.20
2017-09-04T21:00:18.351Z,19.20
2017-09-04T21:02:45.249Z,19.20
2017-09-04T21:05:12.213Z,19.10
2017-09-04T21:07:39.136Z,19.10
2017-09-04T21:10:06.061Z,19.20
2017-09-04T21:12:33.029Z,19.30
2017-09-04T21:14:59.905Z,19.40
2017-09-04T21:17:26.922Z,19.50
2017-09-04T21:19:53.894Z,19.60
2017-09-04T21:22:20.813Z,19.60
2017-09-04T21:24:47.769Z,19.70
2017-09-04T21:27:14.682Z,19.80
2017-09-04T21:29:41.704Z,19.90
2017-09-04T21:32:08.578Z,19.90
2017-09-04T21:34:35.457Z,20.00
2017-09-04T21:37:02.419Z,20.00
2017-09-04T21:39:29.333Z,20.00
2017-09-04T21:41:56.281Z,20.00
2017-09-04T21:44:23.241Z,20.00
2017-09-04T21:46:50.129Z,20.00
2017-09-04T21:49:17.055Z,20.10
2017-09-04T21:51:43.938Z,20.10
2017-09-04T21:54:10.922Z,20.00
2017-09-04T21:56:37.863Z,20.00
2017-09-04T21:59:04.807Z,20.00
2017-09-04T22:01:31.755Z,20.00
2017-09-04T22:03:58.633Z,19.90
2017-09-04T22:06:26.396Z,19.80
2017-09-04T22:08:53.402Z,19.70
2017-09-04T22:11:20.316Z,19.70
2017-09-04T22:13:47.197Z,19.70
2017-09-04T22:16:14.150Z,19.60
2017-09-04T22:18:41.094Z,19.30
2017-09-04T22:21:08.038Z,19.20
2017-09-04T22:23:34.986Z,19.10
2017-09-04T22:26:01.942Z,19.00
2017-09-04T22:28:28.829Z,18.90
2017-09-04T22:30:55.826Z,18.80
2017-09-04T22:33:22.777Z,18.80
2017-09-04T22:35:49.662Z,18.80
2017-09-04T22:38:16.565Z,18.80
2017-09-04T22:40:43.485Z,18.80
2017-09-04T22:43:10.462Z,18.80
2017-09-04T22:45:37.402Z,18.90
2017-09-04T22:48:04.349Z,19.00
2017-09-04T22:50:31.295Z,18.90
2017-09-04T22:52:58.249Z,19.00
2017-09-04T22:55:25.191Z,19.00
2017-09-04T22:57:52.133Z,19.00
2017-09-04T23:00:19.174Z,18.90
2017-09-04T23:02:46.130Z,18.90
2017-09-04T23:05:13.134Z,18.90
2017-09-04T23:07:40.126Z,18.90
2017-09-04T23:10:07.074Z,18.90
2017-09-04T23:12:34.018Z,18.80
2017-09-04T23:15:00.965Z,18.70
2017-09-04T23:17:27.850Z,18.50
2017-09-04T23:19:54.798Z,18.60
2017-09-04T23:22:21.680Z,18.60
2017-09-04T23:24:48.642Z,18.60
2017-09-04T23:27:15.589Z,18.50
2017-09-04T23:29:42.465Z,18.50
2017-09-04T23:32:09.369Z,18.30
2017-09-04T23:34:36.281Z,18.30
2017-09-04T23:37:03.197Z,18.00
2017-09-04T23:39:30.113Z,17.90
2017-09-04T23:41:57.064Z,17.90
2017-09-04T23:44:24.018Z,17.80
2017-09-04T23:46:50.957Z,17.90
2017-09-04T23:49:17.844Z,17.70
2017-09-04T23:51:44.871Z,17.60
2017-09-04T23:54:11.757Z,17.50
2017-09-04T23:56:38.793Z,17.30
2017-09-04T23:59:05.792Z,17.30
